sensor_id;sensor_type;location;lat;lon;timestamp;temperature;humidity
75648;DHT22;64238;51.466;7.260;2022-12-18T00:01:20;23.20;28.00
75648;DHT22;64238;51.466;7.260;2022-12-18T00:03:46;23.10;27.70
75648;DHT22;64238;51.466;7.260;2022-12-18T00:06:12;23.10;27.60
75648;DHT22;64238;51.466;7.260;2022-12-18T00:08:39;23.10;28.00
75648;DHT22;64238;51.466;7.260;2022-12-18T00:11:06;23.20;27.80
75648;DHT22;64238;51.466;7.260;2022-12-18T00:13:32;23.20;27.90
75648;DHT22;64238;51.466;7.260;2022-12-18T00:16:09;23.20;27.80
75648;DHT22;64238;51.466;7.260;2022-12-18T00:18:35;23.20;27.50
75648;DHT22;64238;51.466;7.260;2022-12-18T00:21:02;23.20;27.80
75648;DHT22;64238;51.466;7.260;2022-12-18T00:23:29;23.10;27.60
75648;DHT22;64238;51.466;7.260;2022-12-18T00:25:54;23.10;27.80
75648;DHT22;64238;51.466;7.260;2022-12-18T00:28:23;23.20;27.60
75648;DHT22;64238;51.466;7.260;2022-12-18T00:30:49;23.20;27.70
75648;DHT22;64238;51.466;7.260;2022-12-18T00:33:17;23.10;27.60
75648;DHT22;64238;51.466;7.260;2022-12-18T00:35:43;23.20;27.60
75648;DHT22;64238;51.466;7.260;2022-12-18T00:38:08;23.10;27.80
75648;DHT22;64238;51.466;7.260;2022-12-18T00:40:34;23.20;27.80
75648;DHT22;64238;51.466;7.260;2022-12-18T00:42:59;23.10;27.70
75648;DHT22;64238;51.466;7.260;2022-12-18T00:45:29;23.20;27.70
75648;DHT22;64238;51.466;7.260;2022-12-18T00:47:56;23.20;27.50
75648;DHT22;64238;51.466;7.260;2022-12-18T00:50:23;23.10;28.00
75648;DHT22;64238;51.466;7.260;2022-12-18T00:52:49;23.10;27.80
75648;DHT22;64238;51.466;7.260;2022-12-18T00:55:15;23.20;27.50
75648;DHT22;64238;51.466;7.260;2022-12-18T00:57:41;23.20;27.60
75648;DHT22;64238;51.466;7.260;2022-12-18T01:00:12;23.10;27.50
75648;DHT22;64238;51.466;7.260;2022-12-18T01:02:38;23.10;27.60
75648;DHT22;64238;51.466;7.260;2022-12-18T01:05:04;23.20;27.90
75648;DHT22;64238;51.466;7.260;2022-12-18T01:07:30;23.10;27.80
75648;DHT22;64238;51.466;7.260;2022-12-18T01:09:55;23.20;27.50
75648;DHT22;64238;51.466;7.260;2022-12-18T01:12:21;23.10;27.40
75648;DHT22;64238;51.466;7.260;2022-12-18T01:14:46;23.20;27.70
75648;DHT22;64238;51.466;7.260;2022-12-18T01:17:12;23.10;27.40
75648;DHT22;64238;51.466;7.260;2022-12-18T01:19:37;23.20;27.50
75648;DHT22;64238;51.466;7.260;2022-12-18T01:22:03;23.10;27.70
75648;DHT22;64238;51.466;7.260;2022-12-18T01:24:28;23.10;27.40
75648;DHT22;64238;51.466;7.260;2022-12-18T01:26:54;23.10;27.50
75648;DHT22;64238;51.466;7.260;2022-12-18T01:29:19;23.10;27.60
75648;DHT22;64238;51.466;7.260;2022-12-18T01:31:45;23.20;27.50
75648;DHT22;64238;51.466;7.260;2022-12-18T01:34:10;23.10;27.50
75648;DHT22;64238;51.466;7.260;2022-12-18T01:36:38;23.20;27.60
75648;DHT22;64238;51.466;7.260;2022-12-18T01:39:13;23.10;27.70
75648;DHT22;64238;51.466;7.260;2022-12-18T01:41:39;23.10;27.10
75648;DHT22;64238;51.466;7.260;2022-12-18T01:50:24;23.10;27.40
75648;DHT22;64238;51.466;7.260;2022-12-18T01:53:00;23.10;27.70
75648;DHT22;64238;51.466;7.260;2022-12-18T01:55:30;23.00;27.50
75648;DHT22;64238;51.466;7.260;2022-12-18T01:57:58;23.10;27.10
75648;DHT22;64238;51.466;7.260;2022-12-18T02:00:25;23.10;27.40
75648;DHT22;64238;51.466;7.260;2022-12-18T02:02:52;23.10;27.40
75648;DHT22;64238;51.466;7.260;2022-12-18T02:08:10;23.00;27.40
75648;DHT22;64238;51.466;7.260;2022-12-18T02:11:05;23.10;27.40
75648;DHT22;64238;51.466;7.260;2022-12-18T02:13:46;23.10;27.50
75648;DHT22;64238;51.466;7.260;2022-12-18T02:16:29;23.10;27.20
75648;DHT22;64238;51.466;7.260;2022-12-18T02:19:00;23.10;27.50
75648;DHT22;64238;51.466;7.260;2022-12-18T02:22:03;23.00;27.50
75648;DHT22;64238;51.466;7.260;2022-12-18T02:24:38;23.10;27.30
75648;DHT22;64238;51.466;7.260;2022-12-18T02:27:09;23.10;27.30
75648;DHT22;64238;51.466;7.260;2022-12-18T02:29:41;23.10;27.40
75648;DHT22;64238;51.466;7.260;2022-12-18T02:32:14;23.10;27.30
75648;DHT22;64238;51.466;7.260;2022-12-18T02:34:40;23.00;27.10
75648;DHT22;64238;51.466;7.260;2022-12-18T02:37:10;23.10;27.30
75648;DHT22;64238;51.466;7.260;2022-12-18T02:39:38;23.10;27.00
75648;DHT22;64238;51.466;7.260;2022-12-18T02:42:05;23.10;26.90
75648;DHT22;64238;51.466;7.260;2022-12-18T02:44:34;23.10;27.40
75648;DHT22;64238;51.466;7.260;2022-12-18T02:47:00;23.10;27.40
75648;DHT22;64238;51.466;7.260;2022-12-18T02:49:36;23.10;27.00
75648;DHT22;64238;51.466;7.260;2022-12-18T02:52:35;23.10;27.40
75648;DHT22;64238;51.466;7.260;2022-12-18T03:00:21;23.00;27.00
75648;DHT22;64238;51.466;7.260;2022-12-18T03:02:58;23.00;27.20
75648;DHT22;64238;51.466;7.260;2022-12-18T03:06:01;23.00;27.20
75648;DHT22;64238;51.466;7.260;2022-12-18T03:08:30;23.10;27.40
75648;DHT22;64238;51.466;7.260;2022-12-18T03:11:09;23.10;27.20
75648;DHT22;64238;51.466;7.260;2022-12-18T03:13:56;23.00;27.10
75648;DHT22;64238;51.466;7.260;2022-12-18T03:16:25;23.00;27.60
75648;DHT22;64238;51.466;7.260;2022-12-18T03:19:01;23.10;27.20
75648;DHT22;64238;51.466;7.260;2022-12-18T03:21:33;23.00;27.30
75648;DHT22;64238;51.466;7.260;2022-12-18T03:24:00;23.00;27.30
75648;DHT22;64238;51.466;7.260;2022-12-18T03:26:29;23.10;27.10
75648;DHT22;64238;51.466;7.260;2022-12-18T03:29:00;23.10;27.30
75648;DHT22;64238;51.466;7.260;2022-12-18T03:31:29;23.10;27.50
75648;DHT22;64238;51.466;7.260;2022-12-18T03:33:59;23.10;27.00
75648;DHT22;64238;51.466;7.260;2022-12-18T03:36:26;23.00;27.30
75648;DHT22;64238;51.466;7.260;2022-12-18T03:38:58;23.10;26.80
75648;DHT22;64238;51.466;7.260;2022-12-18T03:41:53;23.10;27.10
75648;DHT22;64238;51.466;7.260;2022-12-18T03:47:28;23.00;27.00
75648;DHT22;64238;51.466;7.260;2022-12-18T03:52:53;23.00;27.20
75648;DHT22;64238;51.466;7.260;2022-12-18T03:55:22;23.00;27.20
75648;DHT22;64238;51.466;7.260;2022-12-18T03:57:48;23.00;27.20
75648;DHT22;64238;51.466;7.260;2022-12-18T04:00:17;23.10;27.20
75648;DHT22;64238;51.466;7.260;2022-12-18T04:02:47;23.00;27.30
75648;DHT22;64238;51.466;7.260;2022-12-18T04:05:15;23.10;27.10
75648;DHT22;64238;51.466;7.260;2022-12-18T04:07:41;23.00;27.40
75648;DHT22;64238;51.466;7.260;2022-12-18T04:10:07;23.00;27.00
75648;DHT22;64238;51.466;7.260;2022-12-18T04:12:34;23.00;27.10
75648;DHT22;64238;51.466;7.260;2022-12-18T04:15:02;23.10;26.90
75648;DHT22;64238;51.466;7.260;2022-12-18T04:17:28;23.10;26.90
75648;DHT22;64238;51.466;7.260;2022-12-18T04:19:53;23.10;26.80
75648;DHT22;64238;51.466;7.260;2022-12-18T04:22:19;23.10;27.00
75648;DHT22;64238;51.466;7.260;2022-12-18T04:24:44;23.10;26.90
75648;DHT22;64238;51.466;7.260;2022-12-18T04:27:10;23.10;26.90
75648;DHT22;64238;51.466;7.260;2022-12-18T04:29:35;23.10;27.30
75648;DHT22;64238;51.466;7.260;2022-12-18T04:32:01;23.00;27.10
75648;DHT22;64238;51.466;7.260;2022-12-18T04:34:27;23.10;27.20
75648;DHT22;64238;51.466;7.260;2022-12-18T04:36:52;23.10;27.30
75648;DHT22;64238;51.466;7.260;2022-12-18T04:39:18;23.10;27.30
75648;DHT22;64238;51.466;7.260;2022-12-18T04:41:43;23.00;27.20
75648;DHT22;64238;51.466;7.260;2022-12-18T04:44:09;23.00;27.10
75648;DHT22;64238;51.466;7.260;2022-12-18T04:46:34;23.10;27.10
75648;DHT22;64238;51.466;7.260;2022-12-18T04:49:00;23.00;27.30
75648;DHT22;64238;51.466;7.260;2022-12-18T04:51:25;23.10;27.20
75648;DHT22;64238;51.466;7.260;2022-12-18T04:53:51;23.00;27.10
75648;DHT22;64238;51.466;7.260;2022-12-18T04:56:17;23.10;27.20
75648;DHT22;64238;51.466;7.260;2022-12-18T04:58:44;23.10;27.30
75648;DHT22;64238;51.466;7.260;2022-12-18T05:01:11;23.10;27.50
75648;DHT22;64238;51.466;7.260;2022-12-18T05:03:37;23.10;27.10
75648;DHT22;64238;51.466;7.260;2022-12-18T05:06:04;23.10;27.30
75648;DHT22;64238;51.466;7.260;2022-12-18T05:08:30;23.10;27.10
75648;DHT22;64238;51.466;7.260;2022-12-18T05:11:04;23.10;27.50
75648;DHT22;64238;51.466;7.260;2022-12-18T05:13:30;23.10;27.10
75648;DHT22;64238;51.466;7.260;2022-12-18T05:15:56;23.00;26.90
75648;DHT22;64238;51.466;7.260;2022-12-18T05:18:23;23.10;27.00
75648;DHT22;64238;51.466;7.260;2022-12-18T05:20:49;23.10;27.00
75648;DHT22;64238;51.466;7.260;2022-12-18T05:23:15;23.10;27.20
75648;DHT22;64238;51.466;7.260;2022-12-18T05:25:41;23.10;27.00
75648;DHT22;64238;51.466;7.260;2022-12-18T05:28:06;23.10;26.90
75648;DHT22;64238;51.466;7.260;2022-12-18T05:30:32;23.10;27.00
75648;DHT22;64238;51.466;7.260;2022-12-18T05:32:57;23.10;27.10
75648;DHT22;64238;51.466;7.260;2022-12-18T05:35:23;23.00;27.00
75648;DHT22;64238;51.466;7.260;2022-12-18T05:37:48;23.10;27.20
75648;DHT22;64238;51.466;7.260;2022-12-18T05:40:14;23.10;26.90
75648;DHT22;64238;51.466;7.260;2022-12-18T05:42:39;23.00;26.90
75648;DHT22;64238;51.466;7.260;2022-12-18T05:45:05;23.10;27.00
75648;DHT22;64238;51.466;7.260;2022-12-18T05:47:31;23.10;27.40
75648;DHT22;64238;51.466;7.260;2022-12-18T05:49:57;23.10;27.00
75648;DHT22;64238;51.466;7.260;2022-12-18T05:52:22;23.00;26.70
75648;DHT22;64238;51.466;7.260;2022-12-18T05:54:48;23.00;27.20
75648;DHT22;64238;51.466;7.260;2022-12-18T05:57:13;23.10;27.20
75648;DHT22;64238;51.466;7.260;2022-12-18T05:59:39;23.00;27.30
75648;DHT22;64238;51.466;7.260;2022-12-18T06:02:04;23.10;26.90
75648;DHT22;64238;51.466;7.260;2022-12-18T06:04:30;23.10;27.00
75648;DHT22;64238;51.466;7.260;2022-12-18T06:06:56;23.00;27.00
75648;DHT22;64238;51.466;7.260;2022-12-18T06:09:21;23.10;26.70
75648;DHT22;64238;51.466;7.260;2022-12-18T06:11:47;23.10;27.00
75648;DHT22;64238;51.466;7.260;2022-12-18T06:14:12;23.10;26.90
75648;DHT22;64238;51.466;7.260;2022-12-18T06:16:38;23.10;26.80
75648;DHT22;64238;51.466;7.260;2022-12-18T06:19:04;23.10;27.00
75648;DHT22;64238;51.466;7.260;2022-12-18T06:21:31;23.10;26.80
75648;DHT22;64238;51.466;7.260;2022-12-18T06:23:57;23.00;26.70
75648;DHT22;64238;51.466;7.260;2022-12-18T06:26:23;23.00;27.00
75648;DHT22;64238;51.466;7.260;2022-12-18T06:28:49;23.00;26.90
75648;DHT22;64238;51.466;7.260;2022-12-18T06:31:14;23.10;26.70
75648;DHT22;64238;51.466;7.260;2022-12-18T06:33:40;23.00;26.90
75648;DHT22;64238;51.466;7.260;2022-12-18T06:36:12;23.00;27.00
75648;DHT22;64238;51.466;7.260;2022-12-18T06:38:41;23.00;26.80
75648;DHT22;64238;51.466;7.260;2022-12-18T06:41:08;23.10;26.90
75648;DHT22;64238;51.466;7.260;2022-12-18T06:43:34;23.10;26.90
75648;DHT22;64238;51.466;7.260;2022-12-18T06:46:00;23.10;26.70
75648;DHT22;64238;51.466;7.260;2022-12-18T06:48:26;23.00;26.70
75648;DHT22;64238;51.466;7.260;2022-12-18T06:50:52;23.10;27.10
75648;DHT22;64238;51.466;7.260;2022-12-18T06:53:17;23.00;27.00
75648;DHT22;64238;51.466;7.260;2022-12-18T06:55:43;23.00;27.00
75648;DHT22;64238;51.466;7.260;2022-12-18T06:58:08;23.00;26.70
75648;DHT22;64238;51.466;7.260;2022-12-18T07:00:34;23.00;27.00
75648;DHT22;64238;51.466;7.260;2022-12-18T07:03:00;23.00;26.60
75648;DHT22;64238;51.466;7.260;2022-12-18T07:05:25;23.00;26.80
75648;DHT22;64238;51.466;7.260;2022-12-18T07:07:51;23.10;26.90
75648;DHT22;64238;51.466;7.260;2022-12-18T07:10:16;22.90;26.70
75648;DHT22;64238;51.466;7.260;2022-12-18T07:12:42;23.00;26.90
75648;DHT22;64238;51.466;7.260;2022-12-18T07:15:07;23.00;26.70
75648;DHT22;64238;51.466;7.260;2022-12-18T07:17:33;23.00;26.50
75648;DHT22;64238;51.466;7.260;2022-12-18T07:19:59;23.00;26.80
75648;DHT22;64238;51.466;7.260;2022-12-18T07:22:27;23.00;26.60
75648;DHT22;64238;51.466;7.260;2022-12-18T07:24:53;22.90;26.70
75648;DHT22;64238;51.466;7.260;2022-12-18T07:27:18;23.00;26.60
75648;DHT22;64238;51.466;7.260;2022-12-18T07:29:44;23.00;26.70
75648;DHT22;64238;51.466;7.260;2022-12-18T07:32:09;22.90;26.40
75648;DHT22;64238;51.466;7.260;2022-12-18T07:34:35;23.00;26.50
75648;DHT22;64238;51.466;7.260;2022-12-18T07:37:01;23.00;26.30
75648;DHT22;64238;51.466;7.260;2022-12-18T07:39:26;22.90;26.70
75648;DHT22;64238;51.466;7.260;2022-12-18T07:41:52;22.90;26.80
75648;DHT22;64238;51.466;7.260;2022-12-18T07:44:36;22.90;26.70
75648;DHT22;64238;51.466;7.260;2022-12-18T07:47:02;23.00;26.70
75648;DHT22;64238;51.466;7.260;2022-12-18T07:49:28;23.00;26.70
75648;DHT22;64238;51.466;7.260;2022-12-18T07:51:55;23.00;26.50
75648;DHT22;64238;51.466;7.260;2022-12-18T07:54:22;23.00;27.00
75648;DHT22;64238;51.466;7.260;2022-12-18T07:56:48;23.00;26.60
75648;DHT22;64238;51.466;7.260;2022-12-18T07:59:13;23.10;26.50
75648;DHT22;64238;51.466;7.260;2022-12-18T08:01:39;23.00;26.50
75648;DHT22;64238;51.466;7.260;2022-12-18T08:04:04;23.00;26.50
75648;DHT22;64238;51.466;7.260;2022-12-18T08:06:30;23.00;26.60
75648;DHT22;64238;51.466;7.260;2022-12-18T08:08:56;23.10;26.50
75648;DHT22;64238;51.466;7.260;2022-12-18T08:11:23;23.10;26.60
75648;DHT22;64238;51.466;7.260;2022-12-18T08:13:49;23.10;26.50
75648;DHT22;64238;51.466;7.260;2022-12-18T08:16:14;23.10;26.30
75648;DHT22;64238;51.466;7.260;2022-12-18T08:18:40;23.10;26.60
75648;DHT22;64238;51.466;7.260;2022-12-18T08:21:20;23.10;26.40
75648;DHT22;64238;51.466;7.260;2022-12-18T08:23:47;23.10;26.20
75648;DHT22;64238;51.466;7.260;2022-12-18T08:26:13;23.10;26.60
75648;DHT22;64238;51.466;7.260;2022-12-18T08:28:40;23.10;26.40
75648;DHT22;64238;51.466;7.260;2022-12-18T08:31:06;23.10;26.10
75648;DHT22;64238;51.466;7.260;2022-12-18T08:33:31;23.10;26.50
75648;DHT22;64238;51.466;7.260;2022-12-18T08:35:58;23.10;26.40
75648;DHT22;64238;51.466;7.260;2022-12-18T08:38:24;23.10;26.30
75648;DHT22;64238;51.466;7.260;2022-12-18T08:40:53;23.20;26.30
75648;DHT22;64238;51.466;7.260;2022-12-18T08:43:19;23.10;26.40
75648;DHT22;64238;51.466;7.260;2022-12-18T08:46:03;23.10;26.10
75648;DHT22;64238;51.466;7.260;2022-12-18T08:48:29;23.10;26.60
75648;DHT22;64238;51.466;7.260;2022-12-18T08:50:58;23.20;26.40
75648;DHT22;64238;51.466;7.260;2022-12-18T08:53:25;23.20;26.60
75648;DHT22;64238;51.466;7.260;2022-12-18T08:55:51;23.20;26.70
75648;DHT22;64238;51.466;7.260;2022-12-18T08:58:17;23.30;26.20
75648;DHT22;64238;51.466;7.260;2022-12-18T09:00:42;23.20;26.30
75648;DHT22;64238;51.466;7.260;2022-12-18T09:03:15;23.20;26.10
75648;DHT22;64238;51.466;7.260;2022-12-18T09:05:41;23.20;26.40
75648;DHT22;64238;51.466;7.260;2022-12-18T09:08:07;23.30;26.40
75648;DHT22;64238;51.466;7.260;2022-12-18T09:10:32;23.20;26.30
75648;DHT22;64238;51.466;7.260;2022-12-18T09:12:58;23.20;26.40
75648;DHT22;64238;51.466;7.260;2022-12-18T09:15:23;23.30;26.10
75648;DHT22;64238;51.466;7.260;2022-12-18T09:17:49;23.30;26.50
75648;DHT22;64238;51.466;7.260;2022-12-18T09:20:16;23.40;26.20
75648;DHT22;64238;51.466;7.260;2022-12-18T09:22:42;23.40;26.40
75648;DHT22;64238;51.466;7.260;2022-12-18T09:25:07;23.40;26.10
75648;DHT22;64238;51.466;7.260;2022-12-18T09:27:34;23.40;26.20
75648;DHT22;64238;51.466;7.260;2022-12-18T09:29:59;23.40;25.90
75648;DHT22;64238;51.466;7.260;2022-12-18T09:32:25;23.50;26.00
75648;DHT22;64238;51.466;7.260;2022-12-18T09:34:51;23.50;25.90
75648;DHT22;64238;51.466;7.260;2022-12-18T09:37:16;23.50;26.10
75648;DHT22;64238;51.466;7.260;2022-12-18T09:39:42;23.50;26.00
75648;DHT22;64238;51.466;7.260;2022-12-18T09:42:22;23.60;26.20
75648;DHT22;64238;51.466;7.260;2022-12-18T09:44:53;23.60;26.30
75648;DHT22;64238;51.466;7.260;2022-12-18T09:47:29;23.60;26.40
75648;DHT22;64238;51.466;7.260;2022-12-18T09:50:03;23.60;25.90
75648;DHT22;64238;51.466;7.260;2022-12-18T09:52:44;23.60;26.20
75648;DHT22;64238;51.466;7.260;2022-12-18T09:55:41;23.70;25.50
75648;DHT22;64238;51.466;7.260;2022-12-18T09:58:31;23.60;26.10
75648;DHT22;64238;51.466;7.260;2022-12-18T10:00:58;23.60;26.30
75648;DHT22;64238;51.466;7.260;2022-12-18T10:03:24;23.70;25.50
75648;DHT22;64238;51.466;7.260;2022-12-18T10:06:02;23.70;25.40
75648;DHT22;64238;51.466;7.260;2022-12-18T10:22:53;23.70;25.30
75648;DHT22;64238;51.466;7.260;2022-12-18T10:27:57;23.70;25.20
75648;DHT22;64238;51.466;7.260;2022-12-18T10:30:24;23.70;25.40
75648;DHT22;64238;51.466;7.260;2022-12-18T10:32:51;23.80;25.30
75648;DHT22;64238;51.466;7.260;2022-12-18T10:35:20;23.70;25.50
75648;DHT22;64238;51.466;7.260;2022-12-18T10:40:30;23.80;25.40
75648;DHT22;64238;51.466;7.260;2022-12-18T10:43:10;23.80;25.20
75648;DHT22;64238;51.466;7.260;2022-12-18T10:45:36;23.90;25.20
75648;DHT22;64238;51.466;7.260;2022-12-18T10:48:03;23.90;25.30
75648;DHT22;64238;51.466;7.260;2022-12-18T10:50:32;24.00;25.40
75648;DHT22;64238;51.466;7.260;2022-12-18T10:53:03;24.00;25.20
75648;DHT22;64238;51.466;7.260;2022-12-18T10:55:34;24.00;25.30
75648;DHT22;64238;51.466;7.260;2022-12-18T10:58:32;24.00;25.30
75648;DHT22;64238;51.466;7.260;2022-12-18T11:03:35;24.00;25.20
75648;DHT22;64238;51.466;7.260;2022-12-18T11:08:42;24.10;25.10
75648;DHT22;64238;51.466;7.260;2022-12-18T11:11:21;24.10;25.30
75648;DHT22;64238;51.466;7.260;2022-12-18T11:14:12;24.20;25.30
75648;DHT22;64238;51.466;7.260;2022-12-18T11:16:48;24.00;25.10
75648;DHT22;64238;51.466;7.260;2022-12-18T11:19:37;24.10;25.00
75648;DHT22;64238;51.466;7.260;2022-12-18T11:22:23;24.10;25.10
75648;DHT22;64238;51.466;7.260;2022-12-18T11:27:38;24.00;25.30
75648;DHT22;64238;51.466;7.260;2022-12-18T11:33:10;24.00;25.10
75648;DHT22;64238;51.466;7.260;2022-12-18T11:35:50;24.00;25.20
75648;DHT22;64238;51.466;7.260;2022-12-18T11:38:28;24.00;25.40
75648;DHT22;64238;51.466;7.260;2022-12-18T11:44:18;24.00;25.10
75648;DHT22;64238;51.466;7.260;2022-12-18T11:47:01;24.00;25.10
75648;DHT22;64238;51.466;7.260;2022-12-18T11:49:35;24.00;25.20
75648;DHT22;64238;51.466;7.260;2022-12-18T11:52:09;24.00;25.10
75648;DHT22;64238;51.466;7.260;2022-12-18T11:54:36;24.00;25.40
75648;DHT22;64238;51.466;7.260;2022-12-18T12:00:11;24.00;25.20
75648;DHT22;64238;51.466;7.260;2022-12-18T12:11:45;24.10;25.20
75648;DHT22;64238;51.466;7.260;2022-12-18T12:14:18;24.00;25.30
75648;DHT22;64238;51.466;7.260;2022-12-18T12:16:58;24.00;25.20
75648;DHT22;64238;51.466;7.260;2022-12-18T12:22:06;24.00;25.00
75648;DHT22;64238;51.466;7.260;2022-12-18T12:24:49;24.00;24.90
75648;DHT22;64238;51.466;7.260;2022-12-18T12:30:09;24.00;25.00
75648;DHT22;64238;51.466;7.260;2022-12-18T12:33:01;24.10;25.00
75648;DHT22;64238;51.466;7.260;2022-12-18T12:35:36;24.00;25.10
75648;DHT22;64238;51.466;7.260;2022-12-18T12:38:10;24.00;25.00
75648;DHT22;64238;51.466;7.260;2022-12-18T12:40:41;24.00;25.10
75648;DHT22;64238;51.466;7.260;2022-12-18T12:43:33;24.00;25.10
75648;DHT22;64238;51.466;7.260;2022-12-18T12:46:09;24.00;25.00
75648;DHT22;64238;51.466;7.260;2022-12-18T12:48:47;23.90;25.10
75648;DHT22;64238;51.466;7.260;2022-12-18T12:51:22;24.00;25.10
75648;DHT22;64238;51.466;7.260;2022-12-18T12:53:50;24.00;25.00
75648;DHT22;64238;51.466;7.260;2022-12-18T12:56:19;24.00;25.00
75648;DHT22;64238;51.466;7.260;2022-12-18T12:58:46;24.00;25.20
75648;DHT22;64238;51.466;7.260;2022-12-18T13:04:20;24.00;25.20
75648;DHT22;64238;51.466;7.260;2022-12-18T13:07:05;24.00;25.20
75648;DHT22;64238;51.466;7.260;2022-12-18T13:13:01;23.90;24.90
75648;DHT22;64238;51.466;7.260;2022-12-18T13:25:53;23.90;25.10
75648;DHT22;64238;51.466;7.260;2022-12-18T13:36:41;23.80;25.10
75648;DHT22;64238;51.466;7.260;2022-12-18T13:39:11;23.80;25.00
75648;DHT22;64238;51.466;7.260;2022-12-18T13:44:57;23.80;25.10
75648;DHT22;64238;51.466;7.260;2022-12-18T13:47:27;23.80;25.40
75648;DHT22;64238;51.466;7.260;2022-12-18T13:49:56;23.80;25.30
75648;DHT22;64238;51.466;7.260;2022-12-18T13:52:25;23.80;25.10
75648;DHT22;64238;51.466;7.260;2022-12-18T13:54:53;23.90;25.20
75648;DHT22;64238;51.466;7.260;2022-12-18T13:57:37;23.90;25.20
75648;DHT22;64238;51.466;7.260;2022-12-18T14:02:50;23.80;25.20
75648;DHT22;64238;51.466;7.260;2022-12-18T14:05:27;23.80;25.20
75648;DHT22;64238;51.466;7.260;2022-12-18T14:07:54;23.80;25.10
75648;DHT22;64238;51.466;7.260;2022-12-18T14:10:20;23.80;24.90
75648;DHT22;64238;51.466;7.260;2022-12-18T14:12:50;23.80;25.00
75648;DHT22;64238;51.466;7.260;2022-12-18T14:15:31;23.90;25.10
75648;DHT22;64238;51.466;7.260;2022-12-18T14:20:55;23.80;25.20
75648;DHT22;64238;51.466;7.260;2022-12-18T14:25:56;23.70;24.90
75648;DHT22;64238;51.466;7.260;2022-12-18T14:28:21;23.70;25.10
75648;DHT22;64238;51.466;7.260;2022-12-18T14:30:47;23.70;25.10
75648;DHT22;64238;51.466;7.260;2022-12-18T14:33:18;23.70;25.10
75648;DHT22;64238;51.466;7.260;2022-12-18T14:35:58;23.70;25.20
75648;DHT22;64238;51.466;7.260;2022-12-18T14:38:40;23.60;24.90
75648;DHT22;64238;51.466;7.260;2022-12-18T14:41:13;23.70;24.70
75648;DHT22;64238;51.466;7.260;2022-12-18T14:43:42;23.80;25.20
75648;DHT22;64238;51.466;7.260;2022-12-18T14:48:59;23.70;25.10
75648;DHT22;64238;51.466;7.260;2022-12-18T14:51:28;23.70;25.20
75648;DHT22;64238;51.466;7.260;2022-12-18T14:54:00;23.80;25.20
75648;DHT22;64238;51.466;7.260;2022-12-18T14:56:31;23.70;25.30
75648;DHT22;64238;51.466;7.260;2022-12-18T14:59:00;23.60;25.50
75648;DHT22;64238;51.466;7.260;2022-12-18T15:03:55;23.70;25.30
75648;DHT22;64238;51.466;7.260;2022-12-18T15:06:31;23.70;25.20
75648;DHT22;64238;51.466;7.260;2022-12-18T15:08:59;23.60;25.10
75648;DHT22;64238;51.466;7.260;2022-12-18T15:11:42;23.70;25.30
75648;DHT22;64238;51.466;7.260;2022-12-18T15:14:34;23.60;25.50
75648;DHT22;64238;51.466;7.260;2022-12-18T15:17:03;23.60;25.20
75648;DHT22;64238;51.466;7.260;2022-12-18T15:19:37;23.60;25.60
75648;DHT22;64238;51.466;7.260;2022-12-18T15:22:04;23.60;25.80
75648;DHT22;64238;51.466;7.260;2022-12-18T15:24:31;23.60;25.30
75648;DHT22;64238;51.466;7.260;2022-12-18T15:26:58;23.60;25.10
75648;DHT22;64238;51.466;7.260;2022-12-18T15:29:24;23.60;25.70
75648;DHT22;64238;51.466;7.260;2022-12-18T15:31:59;23.60;25.20
75648;DHT22;64238;51.466;7.260;2022-12-18T15:34:25;23.70;25.30
75648;DHT22;64238;51.466;7.260;2022-12-18T15:36:52;23.70;25.10
75648;DHT22;64238;51.466;7.260;2022-12-18T15:39:17;23.50;25.70
75648;DHT22;64238;51.466;7.260;2022-12-18T15:41:43;23.50;25.60
75648;DHT22;64238;51.466;7.260;2022-12-18T15:44:29;23.60;25.80
75648;DHT22;64238;51.466;7.260;2022-12-18T15:46:54;23.50;25.40
75648;DHT22;64238;51.466;7.260;2022-12-18T15:49:20;23.50;26.10
75648;DHT22;64238;51.466;7.260;2022-12-18T15:51:53;23.50;25.50
75648;DHT22;64238;51.466;7.260;2022-12-18T15:54:20;23.50;25.80
75648;DHT22;64238;51.466;7.260;2022-12-18T15:57:07;23.50;25.80
75648;DHT22;64238;51.466;7.260;2022-12-18T15:59:49;23.50;25.90
75648;DHT22;64238;51.466;7.260;2022-12-18T16:02:17;23.50;25.80
75648;DHT22;64238;51.466;7.260;2022-12-18T16:04:43;23.40;25.90
75648;DHT22;64238;51.466;7.260;2022-12-18T16:07:11;23.50;25.80
75648;DHT22;64238;51.466;7.260;2022-12-18T16:09:37;23.50;25.80
75648;DHT22;64238;51.466;7.260;2022-12-18T16:12:03;23.50;25.70
75648;DHT22;64238;51.466;7.260;2022-12-18T16:14:30;23.50;25.60
75648;DHT22;64238;51.466;7.260;2022-12-18T16:17:01;23.50;25.80
75648;DHT22;64238;51.466;7.260;2022-12-18T16:19:28;23.50;25.80
75648;DHT22;64238;51.466;7.260;2022-12-18T16:21:55;23.40;25.80
75648;DHT22;64238;51.466;7.260;2022-12-18T16:24:26;23.50;25.90
75648;DHT22;64238;51.466;7.260;2022-12-18T16:26:53;23.40;25.60
75648;DHT22;64238;51.466;7.260;2022-12-18T16:29:20;23.40;25.70
75648;DHT22;64238;51.466;7.260;2022-12-18T16:31:50;23.40;25.90
75648;DHT22;64238;51.466;7.260;2022-12-18T16:34:21;23.40;25.60
75648;DHT22;64238;51.466;7.260;2022-12-18T16:36:48;23.50;25.70
75648;DHT22;64238;51.466;7.260;2022-12-18T16:39:14;23.50;25.80
75648;DHT22;64238;51.466;7.260;2022-12-18T16:41:39;23.40;25.80
75648;DHT22;64238;51.466;7.260;2022-12-18T16:44:05;23.40;25.70
75648;DHT22;64238;51.466;7.260;2022-12-18T16:46:33;23.30;25.70
75648;DHT22;64238;51.466;7.260;2022-12-18T16:48:59;23.40;25.70
75648;DHT22;64238;51.466;7.260;2022-12-18T16:51:28;23.40;25.70
75648;DHT22;64238;51.466;7.260;2022-12-18T16:53:55;23.40;25.60
75648;DHT22;64238;51.466;7.260;2022-12-18T16:56:20;23.40;25.90
75648;DHT22;64238;51.466;7.260;2022-12-18T16:58:51;23.40;25.70
75648;DHT22;64238;51.466;7.260;2022-12-18T17:01:16;23.30;25.70
75648;DHT22;64238;51.466;7.260;2022-12-18T17:03:42;23.40;25.80
75648;DHT22;64238;51.466;7.260;2022-12-18T17:06:07;23.30;25.90
75648;DHT22;64238;51.466;7.260;2022-12-18T17:08:33;23.40;26.30
75648;DHT22;64238;51.466;7.260;2022-12-18T17:11:07;23.40;25.80
75648;DHT22;64238;51.466;7.260;2022-12-18T17:13:33;23.40;25.70
75648;DHT22;64238;51.466;7.260;2022-12-18T17:16:06;23.40;25.70
75648;DHT22;64238;51.466;7.260;2022-12-18T17:18:33;23.40;25.90
75648;DHT22;64238;51.466;7.260;2022-12-18T17:21:03;23.40;25.90
75648;DHT22;64238;51.466;7.260;2022-12-18T17:23:30;23.40;25.80
75648;DHT22;64238;51.466;7.260;2022-12-18T17:25:56;23.30;25.90
75648;DHT22;64238;51.466;7.260;2022-12-18T17:28:24;23.40;25.90
75648;DHT22;64238;51.466;7.260;2022-12-18T17:30:51;23.40;25.90
75648;DHT22;64238;51.466;7.260;2022-12-18T17:33:17;23.30;26.00
75648;DHT22;64238;51.466;7.260;2022-12-18T17:35:42;23.40;25.80
75648;DHT22;64238;51.466;7.260;2022-12-18T17:38:08;23.40;25.90